Bryce, UT

10:44 PM MDT on July 01, 2015 (GMT -0600)
Bryce Canyon | | Change Station
CLOSE
Current Station
Airport
Location: Bryce Canyon,
Elevation: 7585 ft
Nearby Weather Stations

Elev 7585 ft 37.71 °N, 112.15 °W | Updated 39 minutes ago

Rain
Rain
61 °F
Feels Like 61 °F
N
31
Wind Variable Wind from NNE
Gusts 44 mph

Today
High -- | Low -- °F
--% Chance of Precip.
Yesterday
High -- | Low -- °F
Precip. -- in
6:10 AM 8:54 PM
Full, 100% visible
Pressure 30.41 in
Visibility 4.0 miles
Clouds Mostly Cloudy 5000 ft
Overcast 7000 ft
Dew Point 50 °F
Humidity 67%
Rainfall 0.15 in
Snow Depth Not available.
UV 0 out of 12
Pollen 4.50 out of 12
Air Quality Not available.
Flu Activity Not available.
SPECI KBCE 020405Z AUTO 03027G38KT 4SM RA BKN050 OVC070 16/10 A3041 RMK AO2 PK WND 04038/0404 WSHFT 0345 LTG DSNT E P0005 T01610100

More Conditions Fewer Conditions

Pressure 30.41 in
Visibility 4.0 miles
Clouds Mostly Cloudy 5000 ft
Overcast 7000 ft
Dew Point 50 °F
Humidity 67%
Rainfall 0.15 in
Snow Depth Not available.
UV 0 out of 12
Pollen 4.50 out of 12
Air Quality Not available.
Flu Activity Not available.
SPECI KBCE 020405Z AUTO 03027G38KT 4SM RA BKN050 OVC070 16/10 A3041 RMK AO2 PK WND 04038/0404 WSHFT 0345 LTG DSNT E P0005 T01610100

More Conditions Fewer Conditions

Nowcast | as of 8:57 PM MDT on July 1, 2015

Scattered showers and isolated thunderstorms will continue to affect portions of southern and central Utah this evening. The strongest storms at 600 PM were located near Kanab...and between Bryce Canyon and Escalante. Some of these storms are capable of producing cloud to ground lightning...strong gusty winds...and locally heavy rain.

×

10-Day Weather Forecast

×

Almanac

Astronomy

Jul. 01, 2015 Rise Set
Actual Time
Civil Twilight
Nautical Twilight
Astronomical Twilight
Moon
Length of Visible Light
Length of Day
Tomorrow will be .
, % of the Moon is Illuminated

Today's Extremes

State Highs State Lows

Community

WunderPhotos

Upload Photos

1,834,421 photos uploaded!

WunderBlogs® & News

Nearby

Air Quality

  Air Quality AQ Index Pollutant
Not available.

Snow Depth

Station Depth Elevation

Earthquake Activity

City Distance Mag. Time & Date
Minimum magnitude displayed is 2.5.

Coastal Water Temperatures

Place Temperature

Stations

Nearby Weather Stations

Station Location Temp. Windchill Dew Point Humidity Wind Precip. Elev Updated Type